»·PEaware :: AAL102 KBUR-KPDX

AAL102 :: KBUR-KPDX

FLIGHT INFORMATION

Flight Status: Arrived
Operator:
American Airlines
More flights by this operator :: More flights under this callsign
Pilot: Tim Berlet (15084)
Aircraft: BOEING 757-200
(B752)
More flights by this aircraft type
Origin: KBUR Bob Hope-Burbank
United States
Destination: KPDX Portland Intl
United States
More flights between these airports :: More routes between these airports
Route: OROSZ1 CSTRO DUCKE LMT MOXEE TMBRS2
File this flight plan on PilotEdge
Remarks:
Altitude:
(Current/Filed)
32,000ft
Speed:
(Current/Filed)
280kts
Departed: 21-Apr-17 10:31 AM
Arrived: 21-Apr-17 12:29 PM
Distance/Time
Traveled:
710nm/1:57
Distance/Time
To Go:
Arrived

Flight Plot

Page will automatically refresh every two minutes.

Flight plan parsing failed; only flown route is shown


Map Options




Map Legend


Flown Route
Filed Route
Departure Airport
Arrival Airport
Navaid (VOR, NDB)
Fix

Horizontal Profiles

Position Reports

Time Latitude Longitude Heading Altitude Ground
Speed
21-Apr-17 10:11 34.196777 -118.352368 179 705ft 0kts
21-Apr-17 10:12 34.196777 -118.352368 179 705ft 0kts
21-Apr-17 10:13 34.196777 -118.352368 179 705ft 0kts
21-Apr-17 10:14 34.196777 -118.352368 179 705ft 0kts
21-Apr-17 10:15 34.196777 -118.352368 179 705ft 0kts
21-Apr-17 10:16 34.196777 -118.352368 179 705ft 0kts
21-Apr-17 10:17 34.196777 -118.352368 179 705ft 0kts
21-Apr-17 10:18 34.196777 -118.352368 179 705ft 0kts
21-Apr-17 10:19 34.196777 -118.352368 179 705ft 0kts
21-Apr-17 10:20 34.196777 -118.352368 179 705ft 0kts
21-Apr-17 10:21 34.196776 -118.352368 179 705ft 0kts
21-Apr-17 10:22 34.196777 -118.352368 179 705ft 0kts
21-Apr-17 10:23 34.196962 -118.352345 199 705ft 1kts
21-Apr-17 10:24 34.197148 -118.351982 271 704ft 0kts
21-Apr-17 10:25 34.197148 -118.351982 271 704ft 0kts
21-Apr-17 10:26 34.197148 -118.351982 271 704ft 0kts
21-Apr-17 10:27 34.197157 -118.352079 278 705ft 5kts
21-Apr-17 10:28 34.197924 -118.355232 7 713ft 13kts
21-Apr-17 10:29 34.201270 -118.356042 348 724ft 10kts
21-Apr-17 10:30 34.205849 -118.357325 347 743ft 19kts
21-Apr-17 10:31 34.207968 -118.357900 347 756ft 10kts
21-Apr-17 10:32 34.209174 -118.359617 163 765ft 16kts
21-Apr-17 10:33 34.171941 -118.353302 189 2544ft 212kts
21-Apr-17 10:34 34.125399 -118.407680 256 3976ft 276kts
21-Apr-17 10:35 34.158059 -118.475451 335 3993ft 260kts
21-Apr-17 10:36 34.219639 -118.518388 327 6425ft 266kts
21-Apr-17 10:37 34.281610 -118.567621 325 9059ft 275kts
21-Apr-17 10:38 34.345448 -118.619016 325 11309ft 287kts
21-Apr-17 10:39 34.413003 -118.664777 333 13352ft 295kts
21-Apr-17 10:40 34.493409 -118.687589 348 15276ft 303kts
21-Apr-17 10:41 34.577315 -118.703961 348 16997ft 315kts
21-Apr-17 10:42 34.674395 -118.723653 347 19763ft 370kts
21-Apr-17 10:43 34.771479 -118.765875 329 22076ft 383kts
21-Apr-17 10:44 34.864985 -118.829523 328 24217ft 392kts
21-Apr-17 10:45 34.960661 -118.895329 327 26006ft 400kts
21-Apr-17 10:46 35.057933 -118.962555 327 27628ft 406kts
21-Apr-17 10:47 35.155881 -119.030651 326 28956ft 415kts
21-Apr-17 10:48 35.256955 -119.100907 326 30174ft 423kts
21-Apr-17 10:49 35.359786 -119.172450 326 31264ft 431kts
21-Apr-17 10:50 35.464283 -119.242590 332 32174ft 441kts
21-Apr-17 10:51 35.585452 -119.286060 341 32203ft 468kts
21-Apr-17 10:52 35.708555 -119.326246 340 32182ft 445kts
21-Apr-17 10:53 35.828509 -119.366992 339 32192ft 451kts
21-Apr-17 10:54 35.948590 -119.408710 339 32186ft 450kts
21-Apr-17 10:55 36.068994 -119.450377 340 32186ft 450kts
21-Apr-17 10:56 36.187348 -119.491808 339 32179ft 450kts
21-Apr-17 10:57 36.304773 -119.532551 339 32184ft 435kts
21-Apr-17 10:58 36.420468 -119.572796 340 32185ft 432kts
21-Apr-17 10:59 36.536283 -119.613405 339 32184ft 435kts
21-Apr-17 11:00 36.650983 -119.653794 339 32179ft 434kts
21-Apr-17 11:01 36.765802 -119.694336 339 32186ft 434kts
21-Apr-17 11:02 36.881763 -119.735537 339 32188ft 435kts
21-Apr-17 11:03 36.996538 -119.776516 338 32187ft 435kts
21-Apr-17 11:04 37.110757 -119.817433 337 32187ft 434kts
21-Apr-17 11:05 37.226179 -119.858802 337 32189ft 434kts
21-Apr-17 11:06 37.341788 -119.900339 337 32188ft 434kts
21-Apr-17 11:07 37.457545 -119.941975 337 32185ft 433kts
21-Apr-17 11:08 37.572990 -119.983785 337 32172ft 433kts
21-Apr-17 11:09 37.688926 -120.025881 337 32070ft 435kts
21-Apr-17 11:10 37.804845 -120.068151 337 32004ft 435kts
21-Apr-17 11:11 37.920244 -120.110156 337 32141ft 431kts
21-Apr-17 11:12 38.035604 -120.151524 337 32163ft 430kts
21-Apr-17 11:13 38.147552 -120.192003 337 32176ft 430kts
21-Apr-17 11:14 38.262107 -120.233430 337 32172ft 430kts
21-Apr-17 11:15 38.377191 -120.275205 337 32163ft 430kts
21-Apr-17 11:16 38.491422 -120.316561 338 32209ft 429kts
21-Apr-17 11:17 38.605964 -120.358331 337 32240ft 428kts
21-Apr-17 11:18 38.720065 -120.400032 338 32223ft 428kts
21-Apr-17 11:19 38.831132 -120.440401 337 32180ft 392kts
21-Apr-17 11:20 38.934915 -120.478378 337 32203ft 394kts
21-Apr-17 11:21 39.039584 -120.516927 336 32241ft 392kts
21-Apr-17 11:22 39.143399 -120.555524 336 32244ft 393kts
21-Apr-17 11:23 39.248224 -120.594556 336 32243ft 395kts
21-Apr-17 11:24 39.352953 -120.633632 336 32241ft 391kts
21-Apr-17 11:25 39.455025 -120.671720 335 32255ft 391kts
21-Apr-17 11:26 39.566088 -120.714501 335 32251ft 445kts
21-Apr-17 11:27 39.680523 -120.757593 336 32244ft 425kts
21-Apr-17 11:28 39.796046 -120.801274 336 32259ft 435kts
21-Apr-17 11:29 39.911851 -120.845306 336 32272ft 434kts
21-Apr-17 11:30 40.027159 -120.889370 336 32313ft 433kts
21-Apr-17 11:31 40.141586 -120.933278 335 32313ft 434kts
21-Apr-17 11:32 40.257291 -120.977683 336 32313ft 437kts
21-Apr-17 11:33 40.374078 -121.022588 336 32311ft 437kts
21-Apr-17 11:34 40.489881 -121.067158 335 32310ft 435kts
21-Apr-17 11:35 40.605161 -121.112025 335 32308ft 433kts
21-Apr-17 11:36 40.720508 -121.156782 335 32307ft 432kts
21-Apr-17 11:37 40.835136 -121.201383 335 32310ft 432kts
21-Apr-17 11:38 40.950058 -121.246412 335 32283ft 432kts
21-Apr-17 11:39 41.064825 -121.291549 335 32283ft 431kts
21-Apr-17 11:40 41.176669 -121.335821 335 32301ft 430kts
21-Apr-17 11:41 41.290709 -121.380967 335 32299ft 429kts
21-Apr-17 11:42 41.404531 -121.426352 335 32297ft 428kts
21-Apr-17 11:43 41.518217 -121.471582 335 32299ft 427kts
21-Apr-17 11:44 41.631995 -121.517095 335 32302ft 430kts
21-Apr-17 11:45 41.746431 -121.563234 335 32298ft 433kts
21-Apr-17 11:46 41.861689 -121.609828 335 32297ft 435kts
21-Apr-17 11:47 41.976073 -121.656434 334 32298ft 433kts
21-Apr-17 11:48 42.089595 -121.702159 334 32305ft 423kts
21-Apr-17 11:49 42.199223 -121.750064 331 32309ft 413kts
21-Apr-17 11:50 42.306090 -121.803499 331 32306ft 407kts
21-Apr-17 11:51 42.411713 -121.856338 331 32308ft 411kts
21-Apr-17 11:52 42.518446 -121.909919 331 32307ft 416kts
21-Apr-17 11:53 42.627222 -121.964936 331 32303ft 422kts
21-Apr-17 11:54 42.738947 -122.021732 331 32302ft 437kts
21-Apr-17 11:55 42.853401 -122.080151 331 32295ft 445kts
21-Apr-17 11:56 42.968813 -122.139608 331 32232ft 441kts
21-Apr-17 11:57 43.082226 -122.197353 332 32230ft 431kts
21-Apr-17 11:58 43.189278 -122.252942 332 32201ft 399kts
21-Apr-17 11:59 43.288902 -122.302099 331 32253ft 379kts
21-Apr-17 12:00 43.392100 -122.355803 332 32249ft 417kts
21-Apr-17 12:01 43.498633 -122.411112 332 32252ft 421kts
21-Apr-17 12:02 43.608712 -122.469093 332 32247ft 439kts
21-Apr-17 12:03 43.718498 -122.527080 332 31322ft 448kts
21-Apr-17 12:04 43.829312 -122.577717 337 29528ft 420kts
21-Apr-17 12:05 43.932186 -122.618728 337 27850ft 390kts
21-Apr-17 12:06 44.025053 -122.677374 325 26325ft 384kts
21-Apr-17 12:07 44.110024 -122.730951 332 24833ft 389kts
21-Apr-17 12:08 44.208328 -122.768699 347 23397ft 392kts
21-Apr-17 12:09 44.313516 -122.762017 8 22093ft 388kts
21-Apr-17 12:10 44.413847 -122.735982 0 21607ft 348kts
21-Apr-17 12:11 44.513264 -122.724329 358 21626ft 369kts
21-Apr-17 12:12 44.616077 -122.714256 358 21583ft 369kts
21-Apr-17 12:13 44.712894 -122.704369 358 20093ft 347kts
21-Apr-17 12:14 44.806385 -122.694862 359 18228ft 339kts
21-Apr-17 12:15 44.898934 -122.685615 359 16305ft 332kts
21-Apr-17 12:16 44.988780 -122.676789 1 14367ft 316kts
21-Apr-17 12:16 45.057593 -122.669650 3 12729ft 289kts
21-Apr-17 12:18 45.151932 -122.660061 4 10559ft 298kts
21-Apr-17 12:18 45.217741 -122.653279 4 9946ft 284kts
21-Apr-17 12:20 45.305495 -122.677029 339 9112ft 282kts
21-Apr-17 12:20 45.365539 -122.709660 339 8137ft 273kts
21-Apr-17 12:22 45.445468 -122.753579 338 6887ft 267kts
21-Apr-17 12:22 45.501410 -122.784421 338 5889ft 263kts
21-Apr-17 12:24 45.577753 -122.826162 339 4982ft 238kts
21-Apr-17 12:24 45.625330 -122.843191 10 5049ft 182kts
21-Apr-17 12:25 45.657786 -122.802382 72 4223ft 164kts
21-Apr-17 12:26 45.642881 -122.744481 119 2909ft 148kts
21-Apr-17 12:27 45.624732 -122.697074 114 1274ft 131kts
21-Apr-17 12:28 45.606995 -122.652155 121 520ft 130kts
21-Apr-17 12:29 45.590438 -122.609467 119 28ft 104kts
21-Apr-17 12:30 45.586452 -122.597540 52 25ft 3kts
21-Apr-17 12:31 45.587534 -122.596902 333 26ft 13kts
21-Apr-17 12:32 45.590504 -122.601348 33 28ft 13kts

Navigation Log

Ident Type
Flight plan parsing failed, navigation log unavailable